createdAt,value
2022-09-21T00:01:16.870Z,99.90
2022-09-21T00:03:45.968Z,99.90
2022-09-21T00:06:17.316Z,99.90
2022-09-21T00:08:45.848Z,99.90
2022-09-21T00:11:15.058Z,99.90
2022-09-21T00:13:46.642Z,99.90
2022-09-21T00:16:16.881Z,99.90
2022-09-21T00:18:45.623Z,99.90
2022-09-21T00:21:16.197Z,99.90
2022-09-21T00:23:44.691Z,99.90
2022-09-21T00:26:15.195Z,99.90
2022-09-21T00:28:44.549Z,99.90
2022-09-21T00:31:15.790Z,99.90
2022-09-21T00:33:44.595Z,99.90
2022-09-21T00:36:14.835Z,99.90
2022-09-21T00:38:43.011Z,99.90
2022-09-21T00:41:14.271Z,99.90
2022-09-21T00:43:47.603Z,99.90
2022-09-21T00:46:23.731Z,99.90
2022-09-21T00:48:51.775Z,99.90
2022-09-21T00:51:20.094Z,99.90
2022-09-21T00:53:52.766Z,99.90
2022-09-21T00:56:20.867Z,99.90
2022-09-21T00:58:52.078Z,99.90
2022-09-21T01:01:21.796Z,99.90
2022-09-21T01:03:51.704Z,99.90
2022-09-21T01:06:22.150Z,99.90
2022-09-21T01:08:53.417Z,99.90
2022-09-21T01:11:35.620Z,99.90
2022-09-21T01:14:23.738Z,99.90
2022-09-21T01:17:04.333Z,99.90
2022-09-21T01:19:54.139Z,99.90
2022-09-21T01:22:38.315Z,99.90
2022-09-21T01:25:20.822Z,99.90
2022-09-21T01:28:15.676Z,99.90
2022-09-21T01:58:50.808Z,99.90
2022-09-21T02:01:22.572Z,99.90
2022-09-21T02:03:54.063Z,99.90
2022-09-21T02:06:22.488Z,99.90
2022-09-21T02:08:50.499Z,99.90
2022-09-21T02:11:18.510Z,99.90
2022-09-21T02:13:51.228Z,99.90
2022-09-21T02:16:35.049Z,99.90
2022-09-21T02:19:12.783Z,99.90
2022-09-21T02:21:52.833Z,99.90
2022-09-21T02:24:31.540Z,99.90
2022-09-21T02:27:05.529Z,99.90
2022-09-21T02:29:47.092Z,99.90
2022-09-21T02:32:24.902Z,99.90
2022-09-21T02:34:59.155Z,99.90
2022-09-21T02:37:35.437Z,99.90
2022-09-21T02:40:12.225Z,99.90
2022-09-21T02:42:44.366Z,99.90
2022-09-21T02:45:19.161Z,99.90
2022-09-21T02:47:51.211Z,99.90
2022-09-21T02:50:24.715Z,99.90
2022-09-21T02:52:54.925Z,99.90
2022-09-21T02:55:23.891Z,99.90
2022-09-21T02:57:56.797Z,99.90
2022-09-21T03:00:26.179Z,99.90
2022-09-21T03:02:54.216Z,99.90
2022-09-21T03:05:22.365Z,99.90
2022-09-21T03:07:50.412Z,99.90
2022-09-21T03:10:19.322Z,99.90
2022-09-21T03:12:47.316Z,99.90
2022-09-21T03:15:18.160Z,99.90
2022-09-21T03:17:47.480Z,99.90
2022-09-21T03:20:16.483Z,99.90
2022-09-21T03:22:44.598Z,99.90
2022-09-21T03:25:13.071Z,99.90
2022-09-21T03:27:42.709Z,99.90
2022-09-21T03:30:11.813Z,99.90
2022-09-21T03:32:39.779Z,99.90
2022-09-21T03:35:09.953Z,99.90
2022-09-21T03:37:41.179Z,99.90
2022-09-21T03:40:11.529Z,99.90
2022-09-21T03:42:40.096Z,99.90
2022-09-21T03:45:10.184Z,99.90
2022-09-21T03:47:38.673Z,99.90
2022-09-21T03:50:10.318Z,99.90
2022-09-21T03:52:39.263Z,99.90
2022-09-21T03:55:09.651Z,99.90
2022-09-21T03:57:38.462Z,99.90
2022-09-21T04:00:11.485Z,99.90
2022-09-21T04:02:40.615Z,99.90
2022-09-21T04:05:14.579Z,99.90
2022-09-21T04:07:45.745Z,99.90
2022-09-21T04:10:15.794Z,99.90
2022-09-21T04:12:45.355Z,99.90
2022-09-21T04:15:14.972Z,99.90
2022-09-21T04:17:43.158Z,99.90
2022-09-21T04:20:13.000Z,99.90
2022-09-21T04:22:43.579Z,99.90
2022-09-21T04:25:12.733Z,99.90
2022-09-21T04:27:40.939Z,99.90
2022-09-21T04:30:13.524Z,99.90
2022-09-21T04:32:41.491Z,99.90
2022-09-21T04:35:10.492Z,99.90
2022-09-21T04:37:40.058Z,99.90
2022-09-21T04:40:09.310Z,99.90
2022-09-21T04:42:37.427Z,99.90
2022-09-21T04:45:06.055Z,99.90
2022-09-21T04:47:34.072Z,99.90
2022-09-21T04:50:02.469Z,99.90
2022-09-21T04:52:32.889Z,99.90
2022-09-21T04:55:02.221Z,99.90
2022-09-21T04:57:30.273Z,99.90
2022-09-21T04:59:58.460Z,99.90
2022-09-21T05:02:26.815Z,99.90
2022-09-21T05:04:54.847Z,99.90
2022-09-21T05:07:22.855Z,99.90
2022-09-21T05:10:04.930Z,99.90
2022-09-21T05:12:40.893Z,99.90
2022-09-21T05:15:10.391Z,99.90
2022-09-21T05:17:38.641Z,99.90
2022-09-21T05:20:09.931Z,99.90
2022-09-21T05:22:38.059Z,99.90
2022-09-21T05:25:07.519Z,99.90
2022-09-21T05:27:36.923Z,99.90
2022-09-21T05:30:06.287Z,99.90
2022-09-21T05:32:46.903Z,99.90
2022-09-21T05:35:25.733Z,99.90
2022-09-21T05:37:58.263Z,99.90
2022-09-21T05:40:27.184Z,99.90
2022-09-21T05:42:57.345Z,99.90
2022-09-21T05:45:26.687Z,99.90
2022-09-21T05:48:02.784Z,99.90
2022-09-21T05:50:42.248Z,99.90
2022-09-21T05:53:30.257Z,99.90
2022-09-21T05:56:00.817Z,99.90
2022-09-21T05:58:41.793Z,99.90
2022-09-21T06:01:21.814Z,99.90
2022-09-21T06:03:50.492Z,99.90
2022-09-21T06:06:22.074Z,99.90
2022-09-21T06:08:50.147Z,99.90
2022-09-21T06:11:18.676Z,99.90
2022-09-21T06:13:48.111Z,99.90
2022-09-21T06:16:18.271Z,99.90
2022-09-21T06:18:46.618Z,99.90
2022-09-21T06:21:14.729Z,99.90
2022-09-21T06:23:42.935Z,99.90
2022-09-21T06:26:10.997Z,99.90
2022-09-21T06:28:39.000Z,99.90
2022-09-21T06:31:08.462Z,99.90
2022-09-21T06:33:37.812Z,99.90
2022-09-21T06:36:06.137Z,99.90
2022-09-21T06:38:35.311Z,99.90
2022-09-21T06:41:04.417Z,99.90
2022-09-21T06:43:33.003Z,99.90
2022-09-21T06:46:03.762Z,99.90
2022-09-21T06:48:36.341Z,99.90
2022-09-21T06:51:06.528Z,99.90
2022-09-21T06:53:35.739Z,99.90
2022-09-21T06:56:05.410Z,99.90
2022-09-21T06:58:35.434Z,99.90
2022-09-21T07:01:08.449Z,99.90
2022-09-21T07:03:39.365Z,99.90
2022-09-21T07:06:11.829Z,99.90
2022-09-21T07:11:28.349Z,99.90
2022-09-21T07:13:57.015Z,99.90
2022-09-21T07:16:25.085Z,99.90
2022-09-21T07:18:54.632Z,99.90
2022-09-21T07:21:22.788Z,99.90
2022-09-21T07:23:50.893Z,99.90
2022-09-21T07:26:19.803Z,99.90
2022-09-21T07:28:47.855Z,99.90
2022-09-21T07:31:17.491Z,99.90
2022-09-21T07:33:47.070Z,99.90
2022-09-21T07:36:17.769Z,99.90
2022-09-21T07:38:46.216Z,99.90
2022-09-21T07:41:15.902Z,99.90
2022-09-21T07:43:47.146Z,99.90
2022-09-21T07:46:16.949Z,99.90
2022-09-21T07:48:45.185Z,99.90
2022-09-21T07:51:14.937Z,99.90
2022-09-21T07:53:45.397Z,99.90
2022-09-21T07:56:16.187Z,99.90
2022-09-21T07:59:02.648Z,99.90
2022-09-21T08:01:31.601Z,99.90
2022-09-21T08:04:00.329Z,99.90
2022-09-21T08:06:30.413Z,99.90
2022-09-21T08:08:59.905Z,99.90
2022-09-21T08:11:30.139Z,99.90
2022-09-21T08:14:00.640Z,99.90
2022-09-21T08:16:31.294Z,99.90
2022-09-21T08:18:59.736Z,99.90
2022-09-21T08:21:28.380Z,99.90
2022-09-21T08:23:56.443Z,99.90
2022-09-21T08:26:33.077Z,99.90
2022-09-21T08:29:01.160Z,99.90
2022-09-21T08:31:30.329Z,99.90
2022-09-21T08:33:58.677Z,99.90
2022-09-21T08:36:26.845Z,99.90
2022-09-21T08:38:56.910Z,99.90
2022-09-21T08:41:36.415Z,99.90
2022-09-21T08:44:12.329Z,99.90
2022-09-21T08:46:42.470Z,99.90
2022-09-21T08:49:17.688Z,99.90
2022-09-21T08:51:52.443Z,99.90
2022-09-21T08:54:26.364Z,99.90
2022-09-21T08:57:04.941Z,99.90
2022-09-21T08:59:45.317Z,99.90
2022-09-21T09:02:29.252Z,99.90
2022-09-21T09:05:04.607Z,99.90
2022-09-21T09:07:52.427Z,99.90
2022-09-21T09:10:35.072Z,99.90
2022-09-21T09:13:21.684Z,99.90
2022-09-21T09:16:02.676Z,99.90
2022-09-21T09:18:43.445Z,99.90
2022-09-21T09:21:24.085Z,99.90
2022-09-21T09:24:03.444Z,99.90
2022-09-21T09:26:36.862Z,99.90
2022-09-21T09:29:14.845Z,99.90
2022-09-21T09:31:47.053Z,99.90
2022-09-21T09:34:20.782Z,99.90
2022-09-21T09:36:58.738Z,99.90
2022-09-21T09:39:30.572Z,99.90
2022-09-21T09:42:28.457Z,99.90
2022-09-21T09:45:11.790Z,99.90
2022-09-21T09:47:52.510Z,99.90
2022-09-21T09:50:27.428Z,99.90
2022-09-21T09:53:04.943Z,99.90
2022-09-21T09:55:39.295Z,99.90
2022-09-21T09:58:17.722Z,99.90
2022-09-21T10:00:46.915Z,99.90
2022-09-21T10:03:21.621Z,99.90
2022-09-21T10:05:50.021Z,99.90
2022-09-21T10:08:43.813Z,99.90
2022-09-21T10:11:13.408Z,99.90
2022-09-21T10:13:44.025Z,99.90
2022-09-21T10:16:15.215Z,99.90
2022-09-21T10:18:50.387Z,99.90
2022-09-21T10:21:23.899Z,99.90
2022-09-21T10:24:00.151Z,99.90
2022-09-21T10:26:33.151Z,99.90
2022-09-21T10:29:02.783Z,99.90
2022-09-21T10:31:34.322Z,99.90
2022-09-21T10:34:15.222Z,99.90
2022-09-21T10:36:51.682Z,99.90
2022-09-21T10:39:25.798Z,99.90
2022-09-21T10:42:01.550Z,99.90
2022-09-21T10:44:36.536Z,99.90
2022-09-21T10:47:17.854Z,99.90
2022-09-21T10:49:50.335Z,99.90
2022-09-21T10:52:21.348Z,99.90
2022-09-21T10:54:55.572Z,99.90
2022-09-21T10:57:28.681Z,99.90
2022-09-21T10:59:57.621Z,99.90
2022-09-21T11:02:35.002Z,99.90
2022-09-21T11:05:12.325Z,99.90
2022-09-21T11:07:46.208Z,99.90
2022-09-21T11:10:23.663Z,99.90
2022-09-21T11:13:01.541Z,99.90
2022-09-21T11:15:41.359Z,99.90
2022-09-21T11:18:19.949Z,99.90
2022-09-21T11:20:53.902Z,99.90
2022-09-21T11:23:34.985Z,95.70
2022-09-21T11:26:13.817Z,94.90
2022-09-21T11:28:48.945Z,95.70
2022-09-21T11:31:38.063Z,99.90
2022-09-21T11:34:22.420Z,95.20
2022-09-21T11:37:02.380Z,90.10
2022-09-21T11:39:41.801Z,87.50
2022-09-21T11:42:23.981Z,75.50
2022-09-21T11:44:55.936Z,73.80
2022-09-21T11:47:53.210Z,75.60
2022-09-21T11:50:31.258Z,74.50
2022-09-21T11:53:22.572Z,78.00
2022-09-21T11:56:04.911Z,71.50
2022-09-21T11:58:41.781Z,64.70
2022-09-21T12:01:24.467Z,69.30
2022-09-21T12:04:11.124Z,67.50
2022-09-21T12:06:53.775Z,71.80
2022-09-21T12:09:46.148Z,74.20
2022-09-21T12:12:20.460Z,70.30
2022-09-21T12:14:59.754Z,63.30
2022-09-21T12:17:35.539Z,60.50
2022-09-21T12:20:12.872Z,60.70
2022-09-21T12:22:45.425Z,59.00
2022-09-21T12:25:18.397Z,65.00
2022-09-21T12:27:50.548Z,62.30
2022-09-21T12:30:21.040Z,55.20
2022-09-21T12:32:56.803Z,60.90
2022-09-21T12:35:31.300Z,57.70
2022-09-21T12:38:05.045Z,56.70
2022-09-21T12:40:39.785Z,51.60
2022-09-21T12:43:18.475Z,51.80
2022-09-21T12:45:52.266Z,56.10
2022-09-21T12:48:31.725Z,54.90
2022-09-21T12:51:07.289Z,55.70
2022-09-21T12:53:38.783Z,49.30
2022-09-21T12:56:13.758Z,46.90
2022-09-21T12:59:00.211Z,47.90
2022-09-21T13:01:33.686Z,48.60
2022-09-21T13:04:38.098Z,47.40
2022-09-21T13:07:30.168Z,46.60
2022-09-21T13:09:59.692Z,47.90
2022-09-21T13:12:34.843Z,48.40
2022-09-21T13:15:14.104Z,48.70
2022-09-21T13:17:42.363Z,49.60
2022-09-21T13:20:18.938Z,49.70
2022-09-21T13:22:48.947Z,49.80
2022-09-21T13:25:23.785Z,50.00
2022-09-21T13:28:01.911Z,48.90
2022-09-21T13:30:33.010Z,48.30
2022-09-21T13:33:02.637Z,48.10
2022-09-21T13:36:28.982Z,46.20
2022-09-21T13:39:21.427Z,46.30
2022-09-21T13:42:02.741Z,45.90
2022-09-21T13:44:54.410Z,45.10
2022-09-21T13:47:31.798Z,44.60
2022-09-21T13:50:04.707Z,44.30
2022-09-21T13:52:40.403Z,43.70
2022-09-21T13:55:28.976Z,44.70
2022-09-21T13:57:59.234Z,44.00
2022-09-21T14:00:35.953Z,41.80
2022-09-21T14:03:07.910Z,42.40
2022-09-21T14:05:41.847Z,42.40
2022-09-21T14:08:25.005Z,42.20
2022-09-21T14:10:59.905Z,42.80
2022-09-21T14:13:35.284Z,42.30
2022-09-21T14:16:45.832Z,41.10
2022-09-21T14:19:51.713Z,40.40
2022-09-21T14:22:45.395Z,41.90
2022-09-21T14:25:32.380Z,39.60
2022-09-21T14:28:13.085Z,39.90
2022-09-21T14:30:42.076Z,40.40
2022-09-21T14:33:26.455Z,41.10
2022-09-21T14:35:56.911Z,40.80
2022-09-21T14:38:29.837Z,40.90
2022-09-21T14:41:02.696Z,39.90
2022-09-21T14:43:35.227Z,40.10
2022-09-21T14:46:25.657Z,39.30
2022-09-21T14:49:07.472Z,39.70
2022-09-21T14:51:45.164Z,39.50
2022-09-21T14:54:31.351Z,41.40
2022-09-21T14:57:20.221Z,43.30
2022-09-21T15:00:05.116Z,45.30
2022-09-21T15:02:35.747Z,47.20
2022-09-21T15:05:23.646Z,46.60
2022-09-21T15:08:19.367Z,46.80
2022-09-21T15:10:58.469Z,46.80
2022-09-21T15:14:04.862Z,46.50
2022-09-21T15:16:41.532Z,47.30
2022-09-21T15:19:16.204Z,47.20
2022-09-21T15:21:46.008Z,46.80
2022-09-21T15:24:29.260Z,45.50
2022-09-21T15:27:07.299Z,45.90
2022-09-21T15:29:35.784Z,46.80
2022-09-21T15:32:04.768Z,45.30
2022-09-21T15:34:33.115Z,44.30
2022-09-21T15:37:09.297Z,44.70
2022-09-21T15:39:37.491Z,42.00
2022-09-21T15:42:22.699Z,43.10
2022-09-21T15:44:55.168Z,42.70
2022-09-21T15:47:28.089Z,43.10
2022-09-21T15:49:56.883Z,43.80
2022-09-21T15:52:31.498Z,44.50
2022-09-21T15:55:02.841Z,45.10
2022-09-21T15:57:38.779Z,44.80
2022-09-21T16:00:19.780Z,44.70
2022-09-21T16:03:05.340Z,45.50
2022-09-21T16:05:43.276Z,44.80
2022-09-21T16:08:27.218Z,45.10
2022-09-21T16:11:13.362Z,45.80
2022-09-21T16:14:01.255Z,46.10
2022-09-21T16:16:29.487Z,47.00
2022-09-21T16:18:59.998Z,47.00
2022-09-21T16:21:32.327Z,47.20
2022-09-21T16:24:12.318Z,47.70
2022-09-21T16:26:42.044Z,48.40
2022-09-21T16:29:23.580Z,48.20
2022-09-21T16:31:51.757Z,48.20
2022-09-21T16:34:36.640Z,48.40
2022-09-21T16:37:25.230Z,48.60
2022-09-21T16:39:54.014Z,49.30
2022-09-21T16:42:23.153Z,49.60
2022-09-21T16:44:52.744Z,50.00
2022-09-21T16:47:25.266Z,50.20
2022-09-21T16:49:56.451Z,50.70
2022-09-21T16:52:24.938Z,51.10
2022-09-21T16:54:54.785Z,51.80
2022-09-21T16:57:25.900Z,52.00
2022-09-21T16:59:55.487Z,52.10
2022-09-21T17:02:24.093Z,52.70
2022-09-21T17:04:52.163Z,52.80
2022-09-21T17:07:20.600Z,53.10
2022-09-21T17:09:48.755Z,53.30
2022-09-21T17:12:18.781Z,53.80
2022-09-21T17:14:47.641Z,54.30
2022-09-21T17:17:20.867Z,54.70
2022-09-21T17:19:50.726Z,55.20
2022-09-21T17:22:19.044Z,55.70
2022-09-21T17:24:51.693Z,56.70
2022-09-21T17:27:23.439Z,56.40
2022-09-21T17:29:53.706Z,56.70
2022-09-21T17:32:25.051Z,57.00
2022-09-21T17:34:58.562Z,57.20
2022-09-21T17:37:27.328Z,57.50
2022-09-21T17:39:55.420Z,57.50
2022-09-21T17:42:25.766Z,58.20
2022-09-21T17:45:12.954Z,58.90
2022-09-21T17:47:42.994Z,59.60
2022-09-21T17:50:24.007Z,60.50
2022-09-21T17:53:10.605Z,61.90
2022-09-21T17:55:39.711Z,62.60
2022-09-21T17:58:19.270Z,63.20
2022-09-21T18:01:00.194Z,62.60
2022-09-21T18:03:31.750Z,62.80
2022-09-21T18:06:00.762Z,63.00
2022-09-21T18:08:29.640Z,62.90
2022-09-21T18:11:04.517Z,62.90
2022-09-21T18:13:42.676Z,63.10
2022-09-21T18:16:27.045Z,62.70
2022-09-21T18:19:07.281Z,63.00
2022-09-21T18:21:40.700Z,63.30
2022-09-21T18:24:21.491Z,63.50
2022-09-21T18:26:50.730Z,64.30
2022-09-21T18:29:42.936Z,64.00
2022-09-21T18:32:25.273Z,64.30
2022-09-21T18:35:08.524Z,64.70
2022-09-21T18:37:48.487Z,64.80
2022-09-21T18:40:23.323Z,64.90
2022-09-21T18:42:58.975Z,65.00
2022-09-21T18:45:31.795Z,65.20
2022-09-21T18:48:19.084Z,65.30
2022-09-21T18:50:55.757Z,66.10
2022-09-21T18:53:29.910Z,66.60
2022-09-21T18:55:58.628Z,67.10
2022-09-21T18:58:34.166Z,67.70
2022-09-21T19:01:06.177Z,68.10
2022-09-21T19:03:35.327Z,69.20
2022-09-21T19:06:19.091Z,70.00
2022-09-21T19:08:57.175Z,70.50
2022-09-21T19:11:32.128Z,71.90
2022-09-21T19:14:06.811Z,72.70
2022-09-21T19:16:41.553Z,73.90
2022-09-21T19:19:22.147Z,74.50
2022-09-21T19:21:58.226Z,75.20
2022-09-21T19:24:32.733Z,76.10
2022-09-21T19:27:17.504Z,76.50
2022-09-21T19:29:54.507Z,77.30
2022-09-21T19:32:32.905Z,77.30
2022-09-21T19:35:18.333Z,78.30
2022-09-21T19:37:48.553Z,78.20
2022-09-21T19:40:18.696Z,79.30
2022-09-21T19:43:01.181Z,80.10
2022-09-21T19:45:36.100Z,80.40
2022-09-21T19:48:09.995Z,81.20
2022-09-21T19:50:46.768Z,82.20
2022-09-21T19:53:34.869Z,82.70
2022-09-21T19:56:31.891Z,83.40
2022-09-21T19:59:20.606Z,83.80
2022-09-21T20:01:56.915Z,84.50
2022-09-21T20:04:30.070Z,85.10
2022-09-21T20:07:05.842Z,85.80
2022-09-21T20:09:39.812Z,85.70
2022-09-21T20:12:16.280Z,87.10
2022-09-21T20:14:49.529Z,86.30
2022-09-21T20:17:22.688Z,86.90
2022-09-21T20:19:56.093Z,87.50
2022-09-21T20:22:33.676Z,87.90
2022-09-21T20:25:06.908Z,88.70
2022-09-21T20:27:39.580Z,88.90
2022-09-21T20:30:10.381Z,89.50
2022-09-21T20:32:41.705Z,90.30
2022-09-21T20:35:15.521Z,91.60
2022-09-21T20:37:45.145Z,92.60
2022-09-21T20:40:15.776Z,93.00
2022-09-21T20:42:44.195Z,93.20
2022-09-21T20:45:14.027Z,93.10
2022-09-21T20:47:42.133Z,92.70
2022-09-21T20:50:11.922Z,93.30
2022-09-21T20:52:42.693Z,94.30
2022-09-21T20:55:13.443Z,94.70
2022-09-21T20:57:42.863Z,95.10
2022-09-21T21:00:13.723Z,95.70
2022-09-21T21:02:41.836Z,95.00
2022-09-21T21:05:11.198Z,95.20
2022-09-21T21:07:42.447Z,96.00
2022-09-21T21:10:13.216Z,96.20
2022-09-21T21:12:44.671Z,96.60
2022-09-21T21:15:13.457Z,96.90
2022-09-21T21:17:42.756Z,97.90
2022-09-21T21:20:11.419Z,97.80
2022-09-21T21:22:39.457Z,97.80
2022-09-21T21:25:08.676Z,98.40
2022-09-21T21:27:37.095Z,98.50
2022-09-21T21:30:08.517Z,98.50
2022-09-21T21:32:37.347Z,98.50
2022-09-21T21:35:06.549Z,98.70
2022-09-21T21:37:37.172Z,99.50
2022-09-21T21:40:06.161Z,99.00
2022-09-21T21:42:34.479Z,99.20
2022-09-21T21:45:02.821Z,99.50
2022-09-21T21:47:39.671Z,99.00
2022-09-21T21:50:09.236Z,99.60
2022-09-21T21:52:37.469Z,99.50
2022-09-21T21:55:06.704Z,99.50
2022-09-21T21:57:34.815Z,99.90
2022-09-21T22:00:03.205Z,99.90
2022-09-21T22:02:34.377Z,99.90
2022-09-21T22:05:03.885Z,99.90
2022-09-21T22:07:32.083Z,99.70
2022-09-21T22:10:00.182Z,99.90
2022-09-21T22:12:28.248Z,99.90
2022-09-21T22:14:56.283Z,99.90
2022-09-21T22:17:24.451Z,99.90
2022-09-21T22:19:54.069Z,99.90
2022-09-21T22:22:22.069Z,99.90
2022-09-21T22:24:52.251Z,99.90
2022-09-21T22:27:20.442Z,99.90
2022-09-21T22:29:50.550Z,99.90
2022-09-21T22:32:18.759Z,99.90
2022-09-21T22:34:46.853Z,99.90
2022-09-21T22:37:16.188Z,99.90
2022-09-21T22:39:44.139Z,99.90
2022-09-21T22:42:12.431Z,99.90
2022-09-21T22:44:40.436Z,99.90
2022-09-21T22:47:08.545Z,99.90
2022-09-21T22:49:36.775Z,99.90
2022-09-21T22:52:07.205Z,99.90
2022-09-21T22:54:36.481Z,99.90
2022-09-21T22:57:04.996Z,99.90
2022-09-21T22:59:33.164Z,99.90
2022-09-21T23:02:01.237Z,99.90
2022-09-21T23:04:29.281Z,99.90
2022-09-21T23:06:57.331Z,99.90
2022-09-21T23:09:25.328Z,99.90
2022-09-21T23:11:54.866Z,99.90
2022-09-21T23:14:23.845Z,99.90
2022-09-21T23:16:51.873Z,99.90
2022-09-21T23:19:19.894Z,99.90
2022-09-21T23:21:50.403Z,99.90
2022-09-21T23:24:18.866Z,99.90
2022-09-21T23:26:47.668Z,99.90
2022-09-21T23:29:17.187Z,99.90
2022-09-21T23:31:46.366Z,99.90
2022-09-21T23:34:15.891Z,99.90
2022-09-21T23:36:45.320Z,99.90
2022-09-21T23:39:14.844Z,99.90
2022-09-21T23:41:45.438Z,99.90
2022-09-21T23:44:13.778Z,99.90
2022-09-21T23:46:43.613Z,99.90
2022-09-21T23:49:11.804Z,99.90
2022-09-21T23:51:40.424Z,99.90
2022-09-21T23:54:10.843Z,99.90
2022-09-21T23:56:38.980Z,99.90
2022-09-21T23:59:06.993Z,99.90
